createdAt,value
2022-12-29T00:02:06.723Z,83.52
2022-12-29T00:07:12.714Z,83.39
2022-12-29T00:12:18.171Z,83.16
2022-12-29T00:17:23.788Z,83.20
2022-12-29T00:22:46.926Z,83.14
2022-12-29T00:28:10.264Z,83.23
2022-12-29T00:33:37.323Z,83.00
2022-12-29T00:39:03.925Z,82.77
2022-12-29T00:44:11.338Z,82.60
2022-12-29T00:49:32.904Z,82.75
2022-12-29T00:54:41.179Z,82.65
2022-12-29T00:59:46.797Z,82.60
2022-12-29T01:04:54.123Z,83.03
2022-12-29T01:10:11.811Z,82.67
2022-12-29T01:15:17.574Z,82.45
2022-12-29T01:20:23.882Z,82.31
2022-12-29T01:25:29.252Z,82.27
2022-12-29T01:30:36.213Z,82.44
2022-12-29T01:35:41.725Z,82.04
2022-12-29T01:40:49.112Z,81.73
2022-12-29T01:45:56.458Z,81.83
2022-12-29T01:51:01.993Z,81.90
2022-12-29T01:56:10.672Z,81.86
2022-12-29T02:01:17.694Z,81.64
2022-12-29T02:06:33.145Z,81.51
2022-12-29T02:11:40.670Z,82.08
2022-12-29T02:17:07.399Z,82.09
2022-12-29T02:22:42.504Z,81.92
2022-12-29T02:28:12.185Z,81.82
2022-12-29T02:33:32.291Z,82.18
2022-12-29T02:38:49.479Z,82.30
2022-12-29T02:44:09.532Z,82.30
2022-12-29T02:49:17.958Z,82.16
2022-12-29T02:54:42.947Z,82.33
2022-12-29T02:59:52.110Z,82.30
2022-12-29T03:05:09.254Z,82.44
2022-12-29T03:10:17.822Z,82.45
2022-12-29T03:15:50.555Z,82.50
2022-12-29T03:21:02.030Z,82.26
2022-12-29T03:26:11.046Z,82.32
2022-12-29T03:31:18.892Z,82.31
2022-12-29T03:36:48.539Z,82.30
2022-12-29T03:41:57.471Z,82.29
2022-12-29T03:47:03.936Z,82.07
2022-12-29T03:52:09.815Z,82.39
2022-12-29T03:57:16.883Z,82.11
2022-12-29T04:02:25.195Z,82.02
2022-12-29T04:07:31.351Z,81.91
2022-12-29T04:12:37.349Z,81.67
2022-12-29T04:17:42.963Z,81.18
2022-12-29T04:22:48.627Z,81.40
2022-12-29T04:27:54.379Z,81.46
2022-12-29T04:33:20.571Z,81.33
2022-12-29T04:38:27.264Z,81.33
2022-12-29T04:43:33.034Z,81.14
2022-12-29T04:48:43.285Z,81.13
2022-12-29T04:54:05.635Z,80.72
2022-12-29T04:59:11.833Z,80.43
2022-12-29T05:04:17.381Z,79.92
2022-12-29T05:09:24.979Z,79.94
2022-12-29T05:14:30.598Z,79.74
2022-12-29T05:19:36.408Z,79.56
2022-12-29T05:24:42.395Z,79.10
2022-12-29T05:29:49.178Z,78.66
2022-12-29T05:34:54.961Z,78.48
2022-12-29T05:40:02.037Z,78.26
2022-12-29T05:45:09.367Z,78.32
2022-12-29T05:50:31.528Z,78.16
2022-12-29T05:55:46.806Z,78.24
2022-12-29T06:00:49.248Z,77.87
2022-12-29T06:05:54.858Z,77.74
2022-12-29T06:11:00.524Z,77.87
2022-12-29T06:16:06.637Z,77.78
2022-12-29T06:21:13.258Z,77.56
2022-12-29T06:26:18.860Z,77.77
2022-12-29T06:31:25.949Z,77.74
2022-12-29T06:36:31.541Z,77.66
2022-12-29T06:41:37.050Z,77.87
2022-12-29T06:46:56.547Z,77.85
2022-12-29T06:52:07.548Z,77.80
2022-12-29T06:57:10.799Z,77.59
2022-12-29T07:02:18.056Z,80.57
2022-12-29T07:07:23.796Z,78.77
2022-12-29T07:12:29.243Z,76.94
2022-12-29T07:17:34.629Z,76.80
2022-12-29T07:22:40.392Z,76.65
2022-12-29T07:27:45.923Z,76.69
2022-12-29T07:32:51.312Z,76.42
2022-12-29T07:37:56.751Z,76.20
2022-12-29T07:43:02.412Z,76.40
2022-12-29T07:48:10.823Z,76.71
2022-12-29T07:53:16.900Z,76.16
2022-12-29T07:58:22.361Z,76.31
2022-12-29T08:03:27.829Z,76.34
2022-12-29T08:08:33.427Z,75.96
2022-12-29T08:13:38.894Z,75.82
2022-12-29T08:18:44.353Z,76.08
2022-12-29T08:23:50.282Z,76.08
2022-12-29T08:28:57.400Z,76.49
2022-12-29T08:34:04.527Z,76.56
2022-12-29T08:39:10.359Z,76.72
2022-12-29T08:44:15.974Z,76.50
2022-12-29T08:49:21.634Z,76.58
2022-12-29T08:54:27.226Z,76.75
2022-12-29T08:59:33.413Z,76.76
2022-12-29T09:04:39.136Z,76.49
2022-12-29T09:09:44.583Z,76.57
2022-12-29T09:14:50.252Z,76.26
2022-12-29T09:19:55.792Z,75.94
2022-12-29T09:25:01.655Z,76.05
2022-12-29T09:30:11.119Z,75.66
2022-12-29T09:35:17.857Z,75.74
2022-12-29T09:40:35.139Z,75.97
2022-12-29T09:45:50.063Z,75.44
2022-12-29T09:51:04.438Z,75.13
2022-12-29T09:56:15.696Z,74.88
2022-12-29T10:01:36.528Z,74.54
2022-12-29T10:07:19.387Z,74.25
2022-12-29T10:12:07.721Z,74.55
2022-12-29T10:17:35.763Z,73.95
2022-12-29T10:22:50.039Z,73.91
2022-12-29T10:27:58.491Z,73.47
2022-12-29T10:33:06.976Z,73.52
2022-12-29T10:38:34.392Z,72.86
2022-12-29T10:43:47.199Z,72.60
2022-12-29T10:48:54.395Z,72.25
2022-12-29T10:54:05.607Z,71.97
2022-12-29T10:59:19.682Z,71.49
2022-12-29T11:04:55.723Z,71.51
2022-12-29T11:10:19.723Z,71.18
2022-12-29T11:15:25.573Z,70.63
2022-12-29T11:20:40.607Z,70.34
2022-12-29T11:25:46.102Z,70.13
2022-12-29T11:30:54.564Z,70.34
2022-12-29T11:36:03.493Z,69.88
2022-12-29T11:41:11.146Z,69.27
2022-12-29T11:46:22.368Z,68.88
2022-12-29T11:51:45.722Z,68.71
2022-12-29T11:56:53.722Z,68.90
2022-12-29T12:02:01.688Z,68.36
2022-12-29T12:07:22.202Z,68.07
2022-12-29T12:12:33.285Z,68.00
2022-12-29T12:17:44.709Z,67.80
2022-12-29T12:22:58.947Z,67.60
2022-12-29T12:28:16.663Z,67.37
2022-12-29T12:33:31.186Z,67.12
2022-12-29T12:38:48.299Z,67.29
2022-12-29T12:43:56.736Z,67.09
2022-12-29T12:49:33.925Z,66.89
2022-12-29T12:54:57.706Z,66.73
2022-12-29T13:00:06.616Z,66.91
2022-12-29T13:05:26.141Z,67.28
2022-12-29T13:10:33.786Z,67.38
2022-12-29T13:15:45.486Z,68.54
2022-12-29T13:21:02.885Z,70.42
2022-12-29T13:26:32.712Z,69.39
2022-12-29T13:32:08.542Z,70.19
2022-12-29T13:37:17.020Z,70.91
2022-12-29T13:42:23.309Z,71.78
2022-12-29T13:47:34.307Z,72.62
2022-12-29T13:53:19.531Z,73.40
2022-12-29T13:58:43.829Z,73.70
2022-12-29T14:03:52.833Z,74.35
2022-12-29T14:09:20.801Z,74.86
2022-12-29T14:14:29.468Z,75.29
2022-12-29T14:19:37.968Z,75.17
2022-12-29T14:24:46.769Z,75.58
2022-12-29T14:29:54.531Z,75.67
2022-12-29T14:35:02.322Z,75.87
2022-12-29T14:40:23.371Z,76.40
2022-12-29T14:45:33.623Z,77.03
2022-12-29T14:50:42.081Z,77.44
2022-12-29T14:55:59.316Z,77.89
2022-12-29T15:01:07.509Z,78.16
2022-12-29T15:06:17.142Z,78.32
2022-12-29T15:11:25.418Z,78.64
2022-12-29T15:16:38.141Z,78.56
2022-12-29T15:21:44.777Z,78.76
2022-12-29T15:26:54.112Z,78.83
2022-12-29T15:32:05.479Z,78.85
2022-12-29T15:37:11.517Z,78.86
2022-12-29T15:42:32.030Z,79.17
2022-12-29T15:47:37.628Z,79.33
2022-12-29T15:52:43.542Z,79.42
2022-12-29T15:57:49.205Z,79.82
2022-12-29T16:02:56.383Z,79.96
2022-12-29T16:08:02.430Z,80.09
2022-12-29T16:13:22.831Z,80.16
2022-12-29T16:18:31.291Z,80.22
2022-12-29T16:23:38.848Z,80.35
2022-12-29T16:28:44.894Z,80.31
2022-12-29T16:33:53.110Z,80.18
2022-12-29T16:39:24.296Z,80.15
2022-12-29T16:44:33.853Z,79.93
2022-12-29T16:49:42.153Z,79.62
2022-12-29T16:54:50.596Z,79.69
2022-12-29T16:59:59.643Z,79.62
2022-12-29T17:05:05.550Z,79.32
2022-12-29T17:10:11.605Z,79.16
2022-12-29T17:15:30.891Z,79.01
2022-12-29T17:20:36.571Z,78.90
2022-12-29T17:25:42.784Z,78.98
2022-12-29T17:30:49.292Z,78.97
2022-12-29T17:35:55.845Z,78.93
2022-12-29T17:41:01.908Z,79.00
2022-12-29T17:46:09.200Z,78.87
2022-12-29T17:51:15.397Z,78.75
2022-12-29T17:56:20.871Z,78.33
2022-12-29T18:01:31.067Z,78.24
2022-12-29T18:06:34.164Z,77.97
2022-12-29T18:11:44.699Z,77.64
2022-12-29T18:16:50.444Z,77.32
2022-12-29T18:21:55.893Z,76.97
2022-12-29T18:27:01.349Z,76.56
2022-12-29T18:32:08.215Z,76.28
2022-12-29T18:37:13.864Z,76.10
2022-12-29T18:42:19.443Z,75.80
2022-12-29T18:47:24.949Z,75.77
2022-12-29T18:52:30.327Z,75.59
2022-12-29T18:57:35.802Z,75.60
2022-12-29T19:02:41.978Z,76.69
2022-12-29T19:07:47.704Z,75.35
2022-12-29T19:12:54.704Z,75.40
2022-12-29T19:23:14.433Z,75.60
2022-12-29T19:28:28.329Z,75.27
2022-12-29T19:33:33.701Z,74.79
2022-12-29T19:38:39.100Z,74.82
2022-12-29T19:43:45.215Z,74.48
2022-12-29T19:48:51.704Z,74.37
2022-12-29T19:53:58.640Z,74.44
2022-12-29T19:59:04.194Z,74.17
2022-12-29T20:04:09.706Z,74.20
2022-12-29T20:09:15.184Z,74.01
2022-12-29T20:14:20.638Z,73.68
2022-12-29T20:19:26.183Z,74.11
2022-12-29T20:24:33.123Z,73.49
2022-12-29T20:29:41.038Z,73.65
2022-12-29T20:34:48.442Z,73.24
2022-12-29T20:39:53.971Z,73.13
2022-12-29T20:45:01.150Z,73.27
2022-12-29T20:50:07.467Z,73.06
2022-12-29T20:55:12.921Z,73.05
2022-12-29T21:00:22.598Z,72.80
2022-12-29T21:05:28.128Z,72.82
2022-12-29T21:10:33.656Z,72.64
2022-12-29T21:15:39.200Z,72.47
2022-12-29T21:20:44.723Z,72.16
2022-12-29T21:25:50.454Z,71.81
2022-12-29T21:30:55.967Z,71.83
2022-12-29T21:36:06.518Z,71.75
2022-12-29T21:41:16.242Z,71.74
2022-12-29T21:46:23.902Z,71.85
2022-12-29T21:51:47.585Z,71.84
2022-12-29T21:56:55.408Z,71.48
2022-12-29T22:02:19.604Z,71.19
2022-12-29T22:07:43.363Z,71.11
2022-12-29T22:13:02.217Z,71.03
2022-12-29T22:18:07.966Z,71.18
2022-12-29T22:23:15.237Z,71.48
2022-12-29T22:28:20.596Z,71.56
2022-12-29T22:33:26.184Z,71.50
2022-12-29T22:38:31.655Z,71.44
2022-12-29T22:43:37.045Z,71.28
2022-12-29T22:48:42.489Z,71.39
2022-12-29T22:53:50.208Z,71.12
2022-12-29T22:58:55.725Z,71.13
2022-12-29T23:04:44.332Z,71.06
2022-12-29T23:09:11.379Z,70.95
2022-12-29T23:14:19.810Z,70.74
2022-12-29T23:19:25.344Z,70.70
2022-12-29T23:24:30.878Z,70.87
2022-12-29T23:29:36.671Z,71.20
2022-12-29T23:34:42.029Z,71.33
2022-12-29T23:39:47.491Z,71.48
2022-12-29T23:44:52.896Z,71.47
2022-12-29T23:49:58.651Z,72.04
2022-12-29T23:55:05.223Z,72.48
